Accueil
METAR-TAF:

METAR-TAF

Aéroports :

Wallops Flight Facility

Wallops Island, Virginie, États-Unis

latitude: 37-56-26N, longitude: 075-27-47W, altitude: 12 m

Observation

Le bulletin a été fait il y a 27 minutes, à 00:54 UTC
Vent 14 kt de sud
Température 14°C
Humidité 77%
Pression 1014 hPa
Visibilité: 16.1 km
Ciel clair

METAR: KWAL 120054Z AUTO 19014KT 10SM CLR 14/10 A2994 RMK AO2 SLP136 T01390100

Heure: 20:21 (01:21 UTC)


TAF: absent

Observations et prévisions météorologiques de plus de 4000 aéroports (messages METAR et TAF).

Les stations disponibles sont représentées par des disques jaunes et rouges sur la carte.

Passer la souris dessus pour voir le nom de la station.

Cliquer dessus pour voir les observations et prévisions météorologiques.

Pour changer de carte: cliquez sur les boutons verts avec une croix noire pour zoomer, sur le bouton vert avec un tiret pour effectuer un zoom arrière, ou sur les flèches vertes pour les cartes adjacentes.


METAR-TAF: